sensor_id;sensor_type;location;lat;lon;timestamp;P1;durP1;ratioP1;P2;durP2;ratioP2
40511;SDS011;26213;52.446;20.706;2023-04-23T00:02:08;44.72;;;27.40;;
40511;SDS011;26213;52.446;20.706;2023-04-23T00:04:37;48.92;;;26.13;;
40511;SDS011;26213;52.446;20.706;2023-04-23T00:07:03;45.15;;;26.63;;
40511;SDS011;26213;52.446;20.706;2023-04-23T00:09:29;43.13;;;26.50;;
40511;SDS011;26213;52.446;20.706;2023-04-23T00:11:56;41.77;;;25.50;;
40511;SDS011;26213;52.446;20.706;2023-04-23T00:14:22;46.30;;;26.60;;
40511;SDS011;26213;52.446;20.706;2023-04-23T00:16:48;49.63;;;27.80;;
40511;SDS011;26213;52.446;20.706;2023-04-23T00:19:13;45.13;;;26.65;;
40511;SDS011;26213;52.446;20.706;2023-04-23T00:21:39;44.33;;;26.67;;
40511;SDS011;26213;52.446;20.706;2023-04-23T00:24:04;48.25;;;28.58;;
40511;SDS011;26213;52.446;20.706;2023-04-23T00:26:30;49.55;;;26.27;;
40511;SDS011;26213;52.446;20.706;2023-04-23T00:28:55;42.22;;;25.25;;
40511;SDS011;26213;52.446;20.706;2023-04-23T00:31:21;40.90;;;25.77;;
40511;SDS011;26213;52.446;20.706;2023-04-23T00:33:46;51.83;;;26.20;;
40511;SDS011;26213;52.446;20.706;2023-04-23T00:36:12;41.97;;;26.90;;
40511;SDS011;26213;52.446;20.706;2023-04-23T00:38:37;44.28;;;26.58;;
40511;SDS011;26213;52.446;20.706;2023-04-23T00:41:03;36.95;;;24.80;;
40511;SDS011;26213;52.446;20.706;2023-04-23T00:43:28;41.28;;;24.55;;
40511;SDS011;26213;52.446;20.706;2023-04-23T00:45:55;42.45;;;23.58;;
40511;SDS011;26213;52.446;20.706;2023-04-23T00:48:20;38.35;;;24.08;;
40511;SDS011;26213;52.446;20.706;2023-04-23T00:50:46;43.80;;;24.42;;
40511;SDS011;26213;52.446;20.706;2023-04-23T00:53:11;41.92;;;24.65;;
40511;SDS011;26213;52.446;20.706;2023-04-23T00:55:37;39.50;;;22.90;;
40511;SDS011;26213;52.446;20.706;2023-04-23T00:58:02;40.08;;;24.90;;
40511;SDS011;26213;52.446;20.706;2023-04-23T01:00:28;41.92;;;23.92;;
40511;SDS011;26213;52.446;20.706;2023-04-23T01:02:53;36.45;;;21.75;;
40511;SDS011;26213;52.446;20.706;2023-04-23T01:05:19;38.78;;;22.08;;
40511;SDS011;26213;52.446;20.706;2023-04-23T01:07:46;33.83;;;21.77;;
40511;SDS011;26213;52.446;20.706;2023-04-23T01:10:11;39.60;;;21.80;;
40511;SDS011;26213;52.446;20.706;2023-04-23T01:12:37;38.22;;;20.48;;
40511;SDS011;26213;52.446;20.706;2023-04-23T01:15:02;33.38;;;20.38;;
40511;SDS011;26213;52.446;20.706;2023-04-23T01:17:29;32.05;;;20.02;;
40511;SDS011;26213;52.446;20.706;2023-04-23T01:19:56;31.50;;;20.30;;
40511;SDS011;26213;52.446;20.706;2023-04-23T01:22:21;31.40;;;18.92;;
40511;SDS011;26213;52.446;20.706;2023-04-23T01:24:47;30.83;;;18.65;;
40511;SDS011;26213;52.446;20.706;2023-04-23T01:27:12;31.65;;;17.33;;
40511;SDS011;26213;52.446;20.706;2023-04-23T01:29:38;34.47;;;20.23;;
40511;SDS011;26213;52.446;20.706;2023-04-23T01:32:04;28.17;;;18.13;;
40511;SDS011;26213;52.446;20.706;2023-04-23T01:34:30;31.67;;;18.95;;
40511;SDS011;26213;52.446;20.706;2023-04-23T01:36:56;32.78;;;19.02;;
40511;SDS011;26213;52.446;20.706;2023-04-23T01:39:22;26.85;;;18.73;;
40511;SDS011;26213;52.446;20.706;2023-04-23T01:41:48;34.35;;;19.02;;
40511;SDS011;26213;52.446;20.706;2023-04-23T01:44:13;30.70;;;18.67;;
40511;SDS011;26213;52.446;20.706;2023-04-23T01:46:39;30.38;;;18.73;;
40511;SDS011;26213;52.446;20.706;2023-04-23T01:49:04;29.02;;;18.63;;
40511;SDS011;26213;52.446;20.706;2023-04-23T01:51:30;36.45;;;18.52;;
40511;SDS011;26213;52.446;20.706;2023-04-23T01:53:56;35.20;;;18.92;;
40511;SDS011;26213;52.446;20.706;2023-04-23T01:56:24;31.83;;;18.50;;
40511;SDS011;26213;52.446;20.706;2023-04-23T01:58:52;33.83;;;18.83;;
40511;SDS011;26213;52.446;20.706;2023-04-23T02:01:17;29.50;;;18.73;;
40511;SDS011;26213;52.446;20.706;2023-04-23T02:03:43;31.20;;;19.33;;
40511;SDS011;26213;52.446;20.706;2023-04-23T02:06:09;30.48;;;18.58;;
40511;SDS011;26213;52.446;20.706;2023-04-23T02:08:35;29.80;;;18.45;;
40511;SDS011;26213;52.446;20.706;2023-04-23T02:11:01;31.83;;;19.27;;
40511;SDS011;26213;52.446;20.706;2023-04-23T02:13:27;29.48;;;19.70;;
40511;SDS011;26213;52.446;20.706;2023-04-23T02:15:52;34.53;;;19.27;;
40511;SDS011;26213;52.446;20.706;2023-04-23T02:18:17;35.05;;;21.08;;
40511;SDS011;26213;52.446;20.706;2023-04-23T02:20:43;33.95;;;21.38;;
40511;SDS011;26213;52.446;20.706;2023-04-23T02:23:08;33.22;;;20.85;;
40511;SDS011;26213;52.446;20.706;2023-04-23T02:25:35;37.85;;;22.83;;
40511;SDS011;26213;52.446;20.706;2023-04-23T02:28:03;32.20;;;21.52;;
40511;SDS011;26213;52.446;20.706;2023-04-23T02:30:31;33.35;;;19.08;;
40511;SDS011;26213;52.446;20.706;2023-04-23T02:32:57;32.63;;;21.02;;
40511;SDS011;26213;52.446;20.706;2023-04-23T02:35:22;37.15;;;19.95;;
40511;SDS011;26213;52.446;20.706;2023-04-23T02:37:48;30.90;;;20.63;;
40511;SDS011;26213;52.446;20.706;2023-04-23T02:40:16;32.20;;;20.45;;
40511;SDS011;26213;52.446;20.706;2023-04-23T02:42:42;36.05;;;21.58;;
40511;SDS011;26213;52.446;20.706;2023-04-23T02:45:07;36.45;;;21.63;;
40511;SDS011;26213;52.446;20.706;2023-04-23T02:47:33;36.63;;;21.08;;
40511;SDS011;26213;52.446;20.706;2023-04-23T02:49:58;37.63;;;21.42;;
40511;SDS011;26213;52.446;20.706;2023-04-23T02:52:27;34.20;;;21.52;;
40511;SDS011;26213;52.446;20.706;2023-04-23T02:54:52;33.40;;;20.02;;
40511;SDS011;26213;52.446;20.706;2023-04-23T02:57:17;34.53;;;18.38;;
40511;SDS011;26213;52.446;20.706;2023-04-23T02:59:43;29.15;;;19.50;;
40511;SDS011;26213;52.446;20.706;2023-04-23T03:02:08;37.70;;;20.85;;
40511;SDS011;26213;52.446;20.706;2023-04-23T03:04:34;30.27;;;18.38;;
40511;SDS011;26213;52.446;20.706;2023-04-23T03:06:59;31.63;;;20.20;;
40511;SDS011;26213;52.446;20.706;2023-04-23T03:09:25;35.38;;;20.88;;
40511;SDS011;26213;52.446;20.706;2023-04-23T03:11:50;31.30;;;19.45;;
40511;SDS011;26213;52.446;20.706;2023-04-23T03:14:15;34.03;;;20.02;;
40511;SDS011;26213;52.446;20.706;2023-04-23T03:16:41;35.63;;;19.38;;
40511;SDS011;26213;52.446;20.706;2023-04-23T03:19:06;31.50;;;19.35;;
40511;SDS011;26213;52.446;20.706;2023-04-23T03:21:31;32.97;;;19.63;;
40511;SDS011;26213;52.446;20.706;2023-04-23T03:23:57;34.25;;;19.48;;
40511;SDS011;26213;52.446;20.706;2023-04-23T03:26:22;32.67;;;19.95;;
40511;SDS011;26213;52.446;20.706;2023-04-23T03:28:47;29.55;;;19.02;;
40511;SDS011;26213;52.446;20.706;2023-04-23T03:31:13;30.52;;;18.70;;
40511;SDS011;26213;52.446;20.706;2023-04-23T03:33:38;30.42;;;18.10;;
40511;SDS011;26213;52.446;20.706;2023-04-23T03:36:04;27.27;;;17.77;;
40511;SDS011;26213;52.446;20.706;2023-04-23T03:38:29;28.33;;;17.08;;
40511;SDS011;26213;52.446;20.706;2023-04-23T03:40:55;31.42;;;18.50;;
40511;SDS011;26213;52.446;20.706;2023-04-23T03:43:20;30.20;;;17.90;;
40511;SDS011;26213;52.446;20.706;2023-04-23T03:45:45;32.63;;;18.95;;
40511;SDS011;26213;52.446;20.706;2023-04-23T03:48:11;32.45;;;17.70;;
40511;SDS011;26213;52.446;20.706;2023-04-23T03:50:36;30.42;;;18.33;;
40511;SDS011;26213;52.446;20.706;2023-04-23T03:55:29;31.60;;;17.55;;
40511;SDS011;26213;52.446;20.706;2023-04-23T03:57:55;26.38;;;18.48;;
40511;SDS011;26213;52.446;20.706;2023-04-23T04:00:20;29.58;;;17.67;;
40511;SDS011;26213;52.446;20.706;2023-04-23T04:02:45;30.63;;;18.27;;
40511;SDS011;26213;52.446;20.706;2023-04-23T04:05:11;29.45;;;17.58;;
40511;SDS011;26213;52.446;20.706;2023-04-23T04:07:36;28.63;;;17.33;;
40511;SDS011;26213;52.446;20.706;2023-04-23T04:10:02;30.42;;;17.17;;
40511;SDS011;26213;52.446;20.706;2023-04-23T04:12:29;29.00;;;18.88;;
40511;SDS011;26213;52.446;20.706;2023-04-23T04:14:54;26.38;;;18.15;;
40511;SDS011;26213;52.446;20.706;2023-04-23T04:17:20;27.63;;;17.58;;
40511;SDS011;26213;52.446;20.706;2023-04-23T04:19:45;23.75;;;16.17;;
40511;SDS011;26213;52.446;20.706;2023-04-23T04:22:11;25.95;;;16.33;;
40511;SDS011;26213;52.446;20.706;2023-04-23T04:24:36;28.30;;;17.52;;
40511;SDS011;26213;52.446;20.706;2023-04-23T04:27:02;34.53;;;16.95;;
40511;SDS011;26213;52.446;20.706;2023-04-23T04:29:28;29.60;;;18.27;;
40511;SDS011;26213;52.446;20.706;2023-04-23T04:31:55;29.52;;;17.73;;
40511;SDS011;26213;52.446;20.706;2023-04-23T04:34:20;31.77;;;18.20;;
40511;SDS011;26213;52.446;20.706;2023-04-23T04:36:46;27.80;;;17.48;;
40511;SDS011;26213;52.446;20.706;2023-04-23T04:39:11;26.98;;;18.02;;
40511;SDS011;26213;52.446;20.706;2023-04-23T04:41:38;24.52;;;15.75;;
40511;SDS011;26213;52.446;20.706;2023-04-23T04:44:05;32.20;;;19.42;;
40511;SDS011;26213;52.446;20.706;2023-04-23T04:46:32;29.35;;;17.60;;
40511;SDS011;26213;52.446;20.706;2023-04-23T04:48:59;25.60;;;15.40;;
40511;SDS011;26213;52.446;20.706;2023-04-23T04:51:24;26.48;;;18.45;;
40511;SDS011;26213;52.446;20.706;2023-04-23T04:53:51;26.17;;;16.35;;
40511;SDS011;26213;52.446;20.706;2023-04-23T04:56:16;27.77;;;17.70;;
40511;SDS011;26213;52.446;20.706;2023-04-23T04:58:42;27.35;;;16.95;;
40511;SDS011;26213;52.446;20.706;2023-04-23T05:01:07;30.08;;;17.98;;
40511;SDS011;26213;52.446;20.706;2023-04-23T05:03:33;26.60;;;18.00;;
40511;SDS011;26213;52.446;20.706;2023-04-23T05:05:59;27.05;;;17.92;;
40511;SDS011;26213;52.446;20.706;2023-04-23T05:08:25;28.00;;;17.63;;
40511;SDS011;26213;52.446;20.706;2023-04-23T05:10:50;34.30;;;19.27;;
40511;SDS011;26213;52.446;20.706;2023-04-23T05:13:17;30.73;;;17.10;;
40511;SDS011;26213;52.446;20.706;2023-04-23T05:15:44;25.65;;;16.83;;
40511;SDS011;26213;52.446;20.706;2023-04-23T05:18:10;28.20;;;17.83;;
40511;SDS011;26213;52.446;20.706;2023-04-23T05:20:36;28.10;;;18.02;;
40511;SDS011;26213;52.446;20.706;2023-04-23T05:23:02;26.65;;;18.13;;
40511;SDS011;26213;52.446;20.706;2023-04-23T05:25:28;26.00;;;17.15;;
40511;SDS011;26213;52.446;20.706;2023-04-23T05:27:54;28.73;;;18.73;;
40511;SDS011;26213;52.446;20.706;2023-04-23T05:30:19;28.05;;;19.65;;
40511;SDS011;26213;52.446;20.706;2023-04-23T05:32:45;27.50;;;17.42;;
40511;SDS011;26213;52.446;20.706;2023-04-23T05:35:10;28.25;;;19.13;;
40511;SDS011;26213;52.446;20.706;2023-04-23T05:37:36;22.17;;;15.73;;
40511;SDS011;26213;52.446;20.706;2023-04-23T05:40:01;23.63;;;16.70;;
40511;SDS011;26213;52.446;20.706;2023-04-23T05:42:28;22.83;;;16.80;;
40511;SDS011;26213;52.446;20.706;2023-04-23T05:44:53;25.35;;;17.05;;
40511;SDS011;26213;52.446;20.706;2023-04-23T05:47:19;28.20;;;16.88;;
40511;SDS011;26213;52.446;20.706;2023-04-23T05:49:45;26.30;;;16.80;;
40511;SDS011;26213;52.446;20.706;2023-04-23T05:52:10;23.48;;;16.30;;
40511;SDS011;26213;52.446;20.706;2023-04-23T05:54:36;23.88;;;16.67;;
40511;SDS011;26213;52.446;20.706;2023-04-23T05:57:01;30.65;;;16.05;;
40511;SDS011;26213;52.446;20.706;2023-04-23T05:59:27;23.35;;;15.73;;
40511;SDS011;26213;52.446;20.706;2023-04-23T06:01:53;24.75;;;17.17;;
40511;SDS011;26213;52.446;20.706;2023-04-23T06:04:18;21.77;;;16.00;;
40511;SDS011;26213;52.446;20.706;2023-04-23T06:06:44;26.58;;;17.15;;
40511;SDS011;26213;52.446;20.706;2023-04-23T06:09:09;24.08;;;16.50;;
40511;SDS011;26213;52.446;20.706;2023-04-23T06:11:35;26.60;;;15.65;;
40511;SDS011;26213;52.446;20.706;2023-04-23T06:14:03;19.70;;;14.13;;
40511;SDS011;26213;52.446;20.706;2023-04-23T06:16:29;25.25;;;16.00;;
40511;SDS011;26213;52.446;20.706;2023-04-23T06:18:55;28.65;;;14.48;;
40511;SDS011;26213;52.446;20.706;2023-04-23T06:21:23;22.25;;;14.02;;
40511;SDS011;26213;52.446;20.706;2023-04-23T06:23:49;19.35;;;12.30;;
40511;SDS011;26213;52.446;20.706;2023-04-23T06:26:15;16.27;;;11.60;;
40511;SDS011;26213;52.446;20.706;2023-04-23T06:28:41;19.13;;;10.80;;
40511;SDS011;26213;52.446;20.706;2023-04-23T06:31:07;18.75;;;11.32;;
40511;SDS011;26213;52.446;20.706;2023-04-23T06:33:33;22.15;;;11.05;;
40511;SDS011;26213;52.446;20.706;2023-04-23T06:35:58;16.85;;;9.98;;
40511;SDS011;26213;52.446;20.706;2023-04-23T06:38:24;22.33;;;11.05;;
40511;SDS011;26213;52.446;20.706;2023-04-23T06:40:49;20.80;;;11.15;;
40511;SDS011;26213;52.446;20.706;2023-04-23T06:43:15;14.20;;;9.70;;
40511;SDS011;26213;52.446;20.706;2023-04-23T06:45:40;20.35;;;9.70;;
40511;SDS011;26213;52.446;20.706;2023-04-23T06:48:06;20.33;;;9.50;;
40511;SDS011;26213;52.446;20.706;2023-04-23T06:50:31;18.85;;;9.65;;
40511;SDS011;26213;52.446;20.706;2023-04-23T06:52:56;10.98;;;8.15;;
40511;SDS011;26213;52.446;20.706;2023-04-23T06:55:22;14.40;;;8.25;;
40511;SDS011;26213;52.446;20.706;2023-04-23T07:00:18;13.57;;;7.65;;
40511;SDS011;26213;52.446;20.706;2023-04-23T07:02:44;10.93;;;8.10;;
40511;SDS011;26213;52.446;20.706;2023-04-23T07:05:11;12.75;;;8.63;;
40511;SDS011;26213;52.446;20.706;2023-04-23T07:07:36;12.57;;;7.93;;
40511;SDS011;26213;52.446;20.706;2023-04-23T07:10:03;11.82;;;7.30;;
40511;SDS011;26213;52.446;20.706;2023-04-23T07:12:29;15.70;;;8.07;;
40511;SDS011;26213;52.446;20.706;2023-04-23T07:14:54;11.48;;;7.15;;
40511;SDS011;26213;52.446;20.706;2023-04-23T07:17:20;10.38;;;7.18;;
40511;SDS011;26213;52.446;20.706;2023-04-23T07:19:45;11.85;;;7.10;;
40511;SDS011;26213;52.446;20.706;2023-04-23T07:22:12;11.05;;;6.85;;
40511;SDS011;26213;52.446;20.706;2023-04-23T07:24:37;13.05;;;6.90;;
40511;SDS011;26213;52.446;20.706;2023-04-23T07:27:03;11.30;;;7.10;;
40511;SDS011;26213;52.446;20.706;2023-04-23T07:29:28;9.20;;;5.97;;
40511;SDS011;26213;52.446;20.706;2023-04-23T07:31:54;11.02;;;5.60;;
40511;SDS011;26213;52.446;20.706;2023-04-23T07:34:20;12.52;;;6.70;;
40511;SDS011;26213;52.446;20.706;2023-04-23T07:36:46;11.27;;;5.68;;
40511;SDS011;26213;52.446;20.706;2023-04-23T07:39:12;10.18;;;5.65;;
40511;SDS011;26213;52.446;20.706;2023-04-23T07:41:38;11.05;;;5.28;;
40511;SDS011;26213;52.446;20.706;2023-04-23T07:44:05;8.60;;;4.97;;
40511;SDS011;26213;52.446;20.706;2023-04-23T07:46:30;8.00;;;4.93;;
40511;SDS011;26213;52.446;20.706;2023-04-23T07:48:56;6.82;;;4.72;;
40511;SDS011;26213;52.446;20.706;2023-04-23T07:51:21;10.05;;;5.18;;
40511;SDS011;26213;52.446;20.706;2023-04-23T07:53:50;7.47;;;4.70;;
40511;SDS011;26213;52.446;20.706;2023-04-23T07:56:18;11.63;;;5.30;;
40511;SDS011;26213;52.446;20.706;2023-04-23T07:58:44;11.25;;;5.72;;
40511;SDS011;26213;52.446;20.706;2023-04-23T08:01:09;8.45;;;5.35;;
40511;SDS011;26213;52.446;20.706;2023-04-23T08:03:35;9.52;;;4.65;;
40511;SDS011;26213;52.446;20.706;2023-04-23T08:06:00;9.43;;;5.38;;
40511;SDS011;26213;52.446;20.706;2023-04-23T08:08:26;8.95;;;4.82;;
40511;SDS011;26213;52.446;20.706;2023-04-23T08:10:52;6.00;;;4.50;;
40511;SDS011;26213;52.446;20.706;2023-04-23T08:13:17;7.90;;;4.57;;
40511;SDS011;26213;52.446;20.706;2023-04-23T08:15:43;7.97;;;4.00;;
40511;SDS011;26213;52.446;20.706;2023-04-23T08:18:10;10.20;;;4.20;;
40511;SDS011;26213;52.446;20.706;2023-04-23T08:20:36;8.88;;;4.50;;
40511;SDS011;26213;52.446;20.706;2023-04-23T08:23:01;10.82;;;4.78;;
40511;SDS011;26213;52.446;20.706;2023-04-23T08:25:28;6.90;;;4.35;;
40511;SDS011;26213;52.446;20.706;2023-04-23T08:27:54;7.10;;;4.03;;
40511;SDS011;26213;52.446;20.706;2023-04-23T08:30:19;8.93;;;3.78;;
40511;SDS011;26213;52.446;20.706;2023-04-23T08:32:46;8.73;;;4.45;;
40511;SDS011;26213;52.446;20.706;2023-04-23T08:35:13;6.45;;;3.63;;
40511;SDS011;26213;52.446;20.706;2023-04-23T08:37:39;6.82;;;4.03;;
40511;SDS011;26213;52.446;20.706;2023-04-23T08:40:05;6.72;;;4.35;;
40511;SDS011;26213;52.446;20.706;2023-04-23T08:42:40;6.47;;;3.83;;
40511;SDS011;26213;52.446;20.706;2023-04-23T08:45:11;5.28;;;3.63;;
40511;SDS011;26213;52.446;20.706;2023-04-23T08:47:40;10.55;;;4.57;;
40511;SDS011;26213;52.446;20.706;2023-04-23T08:50:13;12.77;;;5.82;;
40511;SDS011;26213;52.446;20.706;2023-04-23T08:52:45;6.00;;;4.18;;
40511;SDS011;26213;52.446;20.706;2023-04-23T08:55:12;7.53;;;4.28;;
40511;SDS011;26213;52.446;20.706;2023-04-23T09:00:08;7.38;;;3.30;;
40511;SDS011;26213;52.446;20.706;2023-04-23T09:02:36;6.70;;;4.20;;
40511;SDS011;26213;52.446;20.706;2023-04-23T09:05:02;7.00;;;4.50;;
40511;SDS011;26213;52.446;20.706;2023-04-23T09:07:28;7.72;;;4.18;;
40511;SDS011;26213;52.446;20.706;2023-04-23T09:09:54;6.80;;;3.70;;
40511;SDS011;26213;52.446;20.706;2023-04-23T09:12:20;6.25;;;4.10;;
40511;SDS011;26213;52.446;20.706;2023-04-23T09:14:46;6.80;;;4.10;;
40511;SDS011;26213;52.446;20.706;2023-04-23T09:17:13;7.53;;;4.50;;
40511;SDS011;26213;52.446;20.706;2023-04-23T09:19:38;6.85;;;3.97;;
40511;SDS011;26213;52.446;20.706;2023-04-23T09:22:05;7.68;;;4.43;;
40511;SDS011;26213;52.446;20.706;2023-04-23T09:24:31;7.53;;;4.70;;
40511;SDS011;26213;52.446;20.706;2023-04-23T09:26:58;7.10;;;3.80;;
40511;SDS011;26213;52.446;20.706;2023-04-23T09:29:24;6.38;;;3.88;;
40511;SDS011;26213;52.446;20.706;2023-04-23T09:31:50;6.95;;;3.63;;
40511;SDS011;26213;52.446;20.706;2023-04-23T09:34:17;6.70;;;3.10;;
40511;SDS011;26213;52.446;20.706;2023-04-23T09:36:44;6.32;;;3.95;;
40511;SDS011;26213;52.446;20.706;2023-04-23T09:39:11;7.50;;;3.70;;
40511;SDS011;26213;52.446;20.706;2023-04-23T09:41:37;8.10;;;3.83;;
40511;SDS011;26213;52.446;20.706;2023-04-23T09:44:03;13.35;;;4.00;;
40511;SDS011;26213;52.446;20.706;2023-04-23T09:46:32;9.15;;;3.75;;
40511;SDS011;26213;52.446;20.706;2023-04-23T09:49:03;5.30;;;3.05;;
40511;SDS011;26213;52.446;20.706;2023-04-23T09:51:31;6.95;;;3.92;;
40511;SDS011;26213;52.446;20.706;2023-04-23T09:54:00;9.07;;;3.25;;
40511;SDS011;26213;52.446;20.706;2023-04-23T09:56:29;4.63;;;3.15;;
40511;SDS011;26213;52.446;20.706;2023-04-23T09:58:56;9.60;;;3.55;;
40511;SDS011;26213;52.446;20.706;2023-04-23T10:01:28;4.50;;;2.92;;
40511;SDS011;26213;52.446;20.706;2023-04-23T10:03:54;12.68;;;4.22;;
40511;SDS011;26213;52.446;20.706;2023-04-23T10:06:27;5.22;;;3.42;;
40511;SDS011;26213;52.446;20.706;2023-04-23T10:08:54;7.63;;;4.07;;
40511;SDS011;26213;52.446;20.706;2023-04-23T10:11:21;8.45;;;4.22;;
40511;SDS011;26213;52.446;20.706;2023-04-23T10:13:48;13.50;;;4.05;;
40511;SDS011;26213;52.446;20.706;2023-04-23T10:16:14;6.00;;;3.80;;
40511;SDS011;26213;52.446;20.706;2023-04-23T10:18:40;6.80;;;3.28;;
40511;SDS011;26213;52.446;20.706;2023-04-23T10:21:06;5.75;;;3.20;;
40511;SDS011;26213;52.446;20.706;2023-04-23T10:23:32;6.45;;;3.38;;
40511;SDS011;26213;52.446;20.706;2023-04-23T10:25:58;6.45;;;3.40;;
40511;SDS011;26213;52.446;20.706;2023-04-23T10:28:25;5.53;;;3.90;;
40511;SDS011;26213;52.446;20.706;2023-04-23T10:30:56;10.48;;;3.38;;
40511;SDS011;26213;52.446;20.706;2023-04-23T10:33:22;6.15;;;3.42;;
40511;SDS011;26213;52.446;20.706;2023-04-23T10:35:48;7.32;;;3.63;;
40511;SDS011;26213;52.446;20.706;2023-04-23T10:38:14;7.70;;;3.30;;
40511;SDS011;26213;52.446;20.706;2023-04-23T10:40:40;5.43;;;3.45;;
40511;SDS011;26213;52.446;20.706;2023-04-23T10:43:09;6.43;;;3.38;;
40511;SDS011;26213;52.446;20.706;2023-04-23T10:45:34;5.97;;;3.90;;
40511;SDS011;26213;52.446;20.706;2023-04-23T10:48:00;7.38;;;3.97;;
40511;SDS011;26213;52.446;20.706;2023-04-23T10:50:26;7.90;;;3.30;;
40511;SDS011;26213;52.446;20.706;2023-04-23T10:52:53;7.20;;;3.13;;
40511;SDS011;26213;52.446;20.706;2023-04-23T10:55:21;8.30;;;4.00;;
40511;SDS011;26213;52.446;20.706;2023-04-23T10:58:00;6.28;;;3.35;;
40511;SDS011;26213;52.446;20.706;2023-04-23T11:00:28;8.20;;;3.42;;
40511;SDS011;26213;52.446;20.706;2023-04-23T11:02:55;6.60;;;4.65;;
40511;SDS011;26213;52.446;20.706;2023-04-23T11:05:21;8.45;;;3.88;;
40511;SDS011;26213;52.446;20.706;2023-04-23T11:08:04;8.15;;;4.07;;
40511;SDS011;26213;52.446;20.706;2023-04-23T11:10:31;8.68;;;4.43;;
40511;SDS011;26213;52.446;20.706;2023-04-23T11:13:18;8.83;;;4.00;;
40511;SDS011;26213;52.446;20.706;2023-04-23T11:18:53;6.15;;;3.88;;
40511;SDS011;26213;52.446;20.706;2023-04-23T11:24:23;5.43;;;3.47;;
40511;SDS011;26213;52.446;20.706;2023-04-23T11:27:11;6.43;;;4.00;;
40511;SDS011;26213;52.446;20.706;2023-04-23T11:29:37;8.65;;;4.22;;
40511;SDS011;26213;52.446;20.706;2023-04-23T11:32:04;6.25;;;4.03;;
40511;SDS011;26213;52.446;20.706;2023-04-23T11:34:34;6.43;;;4.43;;
40511;SDS011;26213;52.446;20.706;2023-04-23T11:37:01;7.40;;;4.10;;
40511;SDS011;26213;52.446;20.706;2023-04-23T11:39:27;10.57;;;4.07;;
40511;SDS011;26213;52.446;20.706;2023-04-23T11:41:53;4.60;;;3.63;;
40511;SDS011;26213;52.446;20.706;2023-04-23T11:44:19;5.97;;;3.33;;
40511;SDS011;26213;52.446;20.706;2023-04-23T11:46:46;5.97;;;3.72;;
40511;SDS011;26213;52.446;20.706;2023-04-23T11:49:13;6.15;;;3.45;;
40511;SDS011;26213;52.446;20.706;2023-04-23T11:51:40;11.57;;;4.13;;
40511;SDS011;26213;52.446;20.706;2023-04-23T11:54:07;6.55;;;3.80;;
40511;SDS011;26213;52.446;20.706;2023-04-23T11:56:32;5.50;;;3.47;;
40511;SDS011;26213;52.446;20.706;2023-04-23T11:59:00;6.63;;;3.60;;
40511;SDS011;26213;52.446;20.706;2023-04-23T12:01:49;7.07;;;3.15;;
40511;SDS011;26213;52.446;20.706;2023-04-23T12:04:21;6.70;;;3.67;;
40511;SDS011;26213;52.446;20.706;2023-04-23T12:06:49;5.30;;;3.80;;
40511;SDS011;26213;52.446;20.706;2023-04-23T12:09:15;9.85;;;3.70;;
40511;SDS011;26213;52.446;20.706;2023-04-23T12:11:42;4.75;;;3.35;;
40511;SDS011;26213;52.446;20.706;2023-04-23T12:14:09;6.22;;;3.97;;
40511;SDS011;26213;52.446;20.706;2023-04-23T12:16:40;6.03;;;4.13;;
40511;SDS011;26213;52.446;20.706;2023-04-23T12:19:12;6.28;;;3.30;;
40511;SDS011;26213;52.446;20.706;2023-04-23T12:24:13;4.85;;;3.67;;
40511;SDS011;26213;52.446;20.706;2023-04-23T12:26:39;8.18;;;3.60;;
40511;SDS011;26213;52.446;20.706;2023-04-23T12:29:06;12.10;;;5.53;;
40511;SDS011;26213;52.446;20.706;2023-04-23T12:31:32;7.72;;;3.92;;
40511;SDS011;26213;52.446;20.706;2023-04-23T12:34:04;4.88;;;3.45;;
40511;SDS011;26213;52.446;20.706;2023-04-23T12:36:30;8.02;;;5.10;;
40511;SDS011;26213;52.446;20.706;2023-04-23T12:39:30;6.60;;;3.58;;
40511;SDS011;26213;52.446;20.706;2023-04-23T12:41:49;7.72;;;3.90;;
40511;SDS011;26213;52.446;20.706;2023-04-23T12:44:18;5.32;;;3.53;;
40511;SDS011;26213;52.446;20.706;2023-04-23T12:46:45;8.30;;;4.00;;
40511;SDS011;26213;52.446;20.706;2023-04-23T12:49:13;7.18;;;3.60;;
40511;SDS011;26213;52.446;20.706;2023-04-23T12:51:39;5.60;;;3.63;;
40511;SDS011;26213;52.446;20.706;2023-04-23T12:54:04;6.68;;;3.75;;
40511;SDS011;26213;52.446;20.706;2023-04-23T12:56:30;7.38;;;3.88;;
40511;SDS011;26213;52.446;20.706;2023-04-23T12:58:55;5.38;;;3.90;;
40511;SDS011;26213;52.446;20.706;2023-04-23T13:01:20;6.88;;;3.60;;
40511;SDS011;26213;52.446;20.706;2023-04-23T13:03:46;5.68;;;3.35;;
40511;SDS011;26213;52.446;20.706;2023-04-23T13:06:11;5.32;;;3.50;;
40511;SDS011;26213;52.446;20.706;2023-04-23T13:08:37;8.32;;;3.53;;
40511;SDS011;26213;52.446;20.706;2023-04-23T13:11:03;8.88;;;3.35;;
40511;SDS011;26213;52.446;20.706;2023-04-23T13:13:29;6.90;;;3.72;;
40511;SDS011;26213;52.446;20.706;2023-04-23T13:15:54;9.18;;;3.30;;
40511;SDS011;26213;52.446;20.706;2023-04-23T13:18:20;5.03;;;3.40;;
40511;SDS011;26213;52.446;20.706;2023-04-23T13:20:46;4.45;;;3.42;;
40511;SDS011;26213;52.446;20.706;2023-04-23T13:23:12;8.15;;;4.07;;
40511;SDS011;26213;52.446;20.706;2023-04-23T13:25:37;6.05;;;3.95;;
40511;SDS011;26213;52.446;20.706;2023-04-23T13:28:03;6.32;;;3.53;;
40511;SDS011;26213;52.446;20.706;2023-04-23T13:30:28;6.07;;;3.63;;
40511;SDS011;26213;52.446;20.706;2023-04-23T13:32:53;9.02;;;3.60;;
40511;SDS011;26213;52.446;20.706;2023-04-23T13:35:21;5.40;;;2.88;;
40511;SDS011;26213;52.446;20.706;2023-04-23T13:37:46;7.30;;;3.58;;
40511;SDS011;26213;52.446;20.706;2023-04-23T13:40:12;7.82;;;3.40;;
40511;SDS011;26213;52.446;20.706;2023-04-23T13:42:38;9.27;;;3.90;;
40511;SDS011;26213;52.446;20.706;2023-04-23T13:45:03;6.40;;;3.75;;
40511;SDS011;26213;52.446;20.706;2023-04-23T13:47:30;7.37;;;3.37;;
40511;SDS011;26213;52.446;20.706;2023-04-23T13:49:57;13.57;;;4.65;;
40511;SDS011;26213;52.446;20.706;2023-04-23T13:52:23;8.18;;;3.42;;
40511;SDS011;26213;52.446;20.706;2023-04-23T13:54:49;9.07;;;3.67;;
40511;SDS011;26213;52.446;20.706;2023-04-23T13:57:16;8.18;;;4.20;;
40511;SDS011;26213;52.446;20.706;2023-04-23T13:59:42;8.52;;;3.70;;
40511;SDS011;26213;52.446;20.706;2023-04-23T14:02:07;8.43;;;3.30;;
40511;SDS011;26213;52.446;20.706;2023-04-23T14:04:33;5.60;;;3.67;;
40511;SDS011;26213;52.446;20.706;2023-04-23T14:06:58;7.10;;;3.75;;
40511;SDS011;26213;52.446;20.706;2023-04-23T14:09:24;5.75;;;4.30;;
40511;SDS011;26213;52.446;20.706;2023-04-23T14:11:49;10.15;;;4.70;;
40511;SDS011;26213;52.446;20.706;2023-04-23T14:14:14;5.55;;;4.10;;
40511;SDS011;26213;52.446;20.706;2023-04-23T14:16:40;9.65;;;4.07;;
40511;SDS011;26213;52.446;20.706;2023-04-23T14:19:06;5.32;;;3.45;;
40511;SDS011;26213;52.446;20.706;2023-04-23T14:21:31;9.30;;;4.20;;
40511;SDS011;26213;52.446;20.706;2023-04-23T14:24:01;5.93;;;3.88;;
40511;SDS011;26213;52.446;20.706;2023-04-23T14:26:32;5.50;;;3.40;;
40511;SDS011;26213;52.446;20.706;2023-04-23T14:29:08;5.88;;;3.72;;
40511;SDS011;26213;52.446;20.706;2023-04-23T14:31:35;8.13;;;3.47;;
40511;SDS011;26213;52.446;20.706;2023-04-23T14:34:02;6.87;;;4.20;;